Time;durP1;ratioP1;P1;durP2;ratioP2;P2;SDS_P1;SDS_P2;PMS_P1;PMS_P2;Temp;Humidity;BMP_temperature;BMP_pressure;BME280_temperature;BME280_humidity;BME280_pressure;Samples;Min_cycle;Max_cycle;Signal;HPM_P1;HPM_P2
2022/03/11 00:00:08;;;;;;;4.00;1.30;;;6.30;99.90;;;;;;5053412;28;20525;-53
2022/03/11 00:02:36;;;;;;;2.58;1.30;;;6.30;99.90;;;;;;5053196;28;20802;-52
2022/03/11 00:05:05;;;;;;;3.00;1.30;;;6.30;99.90;;;;;;5051057;28;20436;-50
2022/03/11 00:07:32;;;;;;;2.38;1.30;;;6.30;99.90;;;;;;5052636;28;20897;-53
2022/03/11 00:09:59;;;;;;;3.53;1.30;;;6.20;99.90;;;;;;5051282;28;20922;-50
2022/03/11 00:12:26;;;;;;;3.50;1.40;;;6.20;99.90;;;;;;5052997;28;20508;-49
2022/03/11 00:14:53;;;;;;;4.30;1.60;;;6.20;99.90;;;;;;5052381;28;20852;-53
2022/03/11 00:17:20;;;;;;;2.67;1.20;;;6.20;99.90;;;;;;5053744;28;20428;-51
2022/03/11 00:19:47;;;;;;;3.13;1.80;;;6.20;99.90;;;;;;5053023;28;20872;-51
2022/03/11 00:22:16;;;;;;;2.40;1.25;;;6.20;99.90;;;;;;5054363;28;20427;-53
2022/03/11 00:24:43;;;;;;;3.28;1.65;;;6.10;99.90;;;;;;5053211;28;20429;-53
2022/03/11 00:27:10;;;;;;;3.10;1.90;;;6.10;99.90;;;;;;5054987;28;20775;-50
2022/03/11 00:29:37;;;;;;;3.43;1.80;;;6.10;99.90;;;;;;5053949;28;20529;-52
2022/03/11 00:32:04;;;;;;;3.00;1.60;;;6.10;99.90;;;;;;5055036;28;20474;-50
2022/03/11 00:34:31;;;;;;;3.70;1.60;;;6.10;99.90;;;;;;5052887;28;20433;-53
2022/03/11 00:36:58;;;;;;;5.20;1.92;;;6.20;99.90;;;;;;5054613;28;20461;-52
2022/03/11 00:39:27;;;;;;;4.25;2.03;;;6.20;99.90;;;;;;5053503;28;20546;-53
2022/03/11 00:41:55;;;;;;;3.07;1.70;;;6.10;99.90;;;;;;5054449;28;20483;-53
2022/03/11 00:44:22;;;;;;;3.20;1.50;;;6.10;99.90;;;;;;5052899;28;20823;-55
2022/03/11 00:46:49;;;;;;;3.80;1.85;;;6.00;99.90;;;;;;5052776;28;20428;-53
2022/03/11 00:49:16;;;;;;;4.18;2.20;;;6.00;99.90;;;;;;5052709;28;20840;-52
2022/03/11 00:51:42;;;;;;;4.45;1.80;;;6.00;99.90;;;;;;5053585;28;20425;-54
2022/03/11 00:54:10;;;;;;;3.65;1.90;;;6.00;99.90;;;;;;5052128;28;20534;-51
2022/03/11 00:56:38;;;;;;;4.32;1.70;;;6.00;99.90;;;;;;5052897;28;20790;-51
2022/03/11 00:59:06;;;;;;;5.30;2.53;;;5.90;99.90;;;;;;5052359;28;20475;-53
2022/03/11 01:01:33;;;;;;;3.35;1.80;;;5.90;99.90;;;;;;5053285;28;20914;-53
2022/03/11 01:04:00;;;;;;;2.75;1.80;;;5.90;99.90;;;;;;5052952;28;20508;-52
2022/03/11 01:06:26;;;;;;;4.85;2.20;;;5.80;99.90;;;;;;5053359;28;20417;-53
2022/03/11 01:08:53;;;;;;;4.35;2.10;;;5.80;99.90;;;;;;5052486;28;20433;-52
2022/03/11 01:11:20;;;;;;;4.20;2.10;;;5.80;99.90;;;;;;5052518;28;20435;-50
2022/03/11 01:13:48;;;;;;;3.78;2.10;;;5.80;99.90;;;;;;5054725;28;20761;-52
2022/03/11 01:16:15;;;;;;;7.60;2.90;;;5.80;99.90;;;;;;5053680;28;20547;-52
2022/03/11 01:18:43;;;;;;;5.68;2.50;;;5.70;99.90;;;;;;5054720;28;20775;-53
2022/03/11 01:21:11;;;;;;;5.25;2.67;;;5.70;99.90;;;;;;5053963;28;20792;-52
2022/03/11 01:23:38;;;;;;;4.75;2.67;;;5.70;99.90;;;;;;5054635;28;20837;-51
2022/03/11 01:26:05;;;;;;;4.90;2.50;;;5.70;99.90;;;;;;5053464;28;20468;-54
2022/03/11 01:28:32;;;;;;;5.18;2.55;;;5.70;99.90;;;;;;5053126;28;20440;-55
2022/03/11 01:31:00;;;;;;;4.95;2.90;;;5.70;99.90;;;;;;5052381;28;20429;-50
2022/03/11 01:33:27;;;;;;;6.10;3.17;;;5.70;99.90;;;;;;5054654;28;20775;-53
2022/03/11 01:35:54;;;;;;;6.20;3.30;;;5.70;99.90;;;;;;5053414;28;20459;-51
2022/03/11 01:38:21;;;;;;;7.20;3.15;;;5.60;99.90;;;;;;5054398;28;20814;-51
2022/03/11 01:40:48;;;;;;;4.50;3.22;;;5.60;99.90;;;;;;5053073;28;20852;-54
2022/03/11 01:43:15;;;;;;;5.57;3.10;;;5.60;99.90;;;;;;5054447;28;20438;-52
2022/03/11 01:45:42;;;;;;;4.70;2.70;;;5.60;99.90;;;;;;5053127;28;20529;-52
2022/03/11 01:48:11;;;;;;;5.37;2.70;;;5.60;99.90;;;;;;5054557;28;20779;-49
2022/03/11 01:50:40;;;;;;;7.10;3.47;;;5.60;99.90;;;;;;5053695;28;20519;-53
2022/03/11 01:53:08;;;;;;;5.85;3.45;;;5.60;99.90;;;;;;5055991;28;20421;-51
2022/03/11 01:55:36;;;;;;;7.07;4.25;;;5.60;99.90;;;;;;5056807;28;20433;-52
2022/03/11 01:58:03;;;;;;;6.00;3.13;;;5.50;99.90;;;;;;5056846;28;20508;-52
2022/03/11 02:00:30;;;;;;;7.70;3.78;;;5.40;99.90;;;;;;5055476;28;20425;-53
2022/03/11 02:02:57;;;;;;;5.95;4.07;;;5.40;99.90;;;;;;5058083;28;20471;-48
2022/03/11 02:05:26;;;;;;;5.85;3.35;;;5.30;99.90;;;;;;5056996;28;20429;-50
2022/03/11 02:07:54;;;;;;;6.00;3.40;;;5.20;99.90;;;;;;5057666;28;20460;-54
2022/03/11 02:10:21;;;;;;;6.40;4.07;;;5.20;99.90;;;;;;5055433;28;20433;-53
2022/03/11 02:12:48;;;;;;;5.88;3.30;;;5.10;99.90;;;;;;5056200;28;20487;-53
2022/03/11 02:15:14;;;;;;;5.10;3.10;;;5.10;99.90;;;;;;5054873;28;20440;-52
2022/03/11 02:17:41;;;;;;;6.50;4.00;;;5.00;99.90;;;;;;5056211;28;20420;-52
2022/03/11 02:20:09;;;;;;;7.70;3.63;;;5.00;99.90;;;;;;5055169;28;20510;-53
2022/03/11 02:22:41;;;;;;;7.70;4.50;;;5.00;99.90;;;;;;5055312;28;20512;-53
2022/03/11 02:25:10;;;;;;;6.43;4.13;;;4.90;99.90;;;;;;5055104;28;20461;-54
2022/03/11 02:27:38;;;;;;;7.78;4.47;;;4.90;99.90;;;;;;5056548;28;20445;-54
2022/03/11 02:30:13;;;;;;;7.07;4.05;;;4.90;99.90;;;;;;5054315;28;20473;-51
2022/03/11 02:32:40;;;;;;;5.83;4.10;;;4.80;99.90;;;;;;5056897;28;20441;-49
2022/03/11 02:35:08;;;;;;;6.88;4.03;;;4.90;99.90;;;;;;5055799;28;20508;-56
2022/03/11 02:37:36;;;;;;;6.80;4.17;;;4.80;99.90;;;;;;5056968;28;20778;-50
2022/03/11 02:40:03;;;;;;;6.95;4.47;;;4.80;99.90;;;;;;5056233;28;20465;-53
2022/03/11 02:42:32;;;;;;;6.65;4.03;;;4.70;99.90;;;;;;5055703;28;20856;-53
2022/03/11 02:44:59;;;;;;;7.40;4.22;;;4.70;99.90;;;;;;5054262;28;20895;-51
2022/03/11 02:47:26;;;;;;;8.60;4.80;;;4.60;99.90;;;;;;5055500;28;20425;-51
2022/03/11 02:49:53;;;;;;;7.40;4.85;;;4.50;99.90;;;;;;5054426;28;20465;-50
2022/03/11 02:52:21;;;;;;;8.10;5.13;;;4.50;99.90;;;;;;5055671;28;20555;-51
2022/03/11 02:54:48;;;;;;;7.30;4.97;;;4.50;99.90;;;;;;5054524;28;20433;-50
2022/03/11 02:57:15;;;;;;;7.85;4.90;;;4.50;99.90;;;;;;5056290;28;20512;-53
2022/03/11 02:59:43;;;;;;;9.23;5.13;;;4.50;99.90;;;;;;5056127;28;20448;-52
2022/03/11 03:02:10;;;;;;;8.30;5.20;;;4.60;99.90;;;;;;5056974;28;20448;-53
2022/03/11 03:04:37;;;;;;;8.60;5.78;;;4.60;99.90;;;;;;5055573;28;20476;-52
2022/03/11 03:07:04;;;;;;;9.70;6.30;;;4.50;99.90;;;;;;5056439;28;20872;-51
2022/03/11 03:09:31;;;;;;;7.80;5.43;;;4.50;99.90;;;;;;5055594;28;20513;-52
2022/03/11 03:11:58;;;;;;;10.40;6.25;;;4.50;99.90;;;;;;5056585;28;20524;-50
2022/03/11 03:14:25;;;;;;;9.23;6.00;;;4.50;99.90;;;;;;5055368;28;20518;-50
2022/03/11 03:16:53;;;;;;;7.70;5.10;;;4.40;99.90;;;;;;5056592;28;20422;-50
2022/03/11 03:19:20;;;;;;;11.20;6.17;;;4.40;1.00;;;;;;5055229;28;20556;-51
2022/03/11 03:21:47;;;;;;;10.27;6.03;;;4.30;1.00;;;;;;5055201;28;20512;-55
2022/03/11 03:24:14;;;;;;;8.30;5.40;;;4.30;1.00;;;;;;5053085;28;20487;-52
2022/03/11 03:26:42;;;;;;;9.15;5.90;;;4.40;1.00;;;;;;5055921;28;20488;-52
2022/03/11 03:29:09;;;;;;;10.98;5.53;;;4.40;1.00;;;;;;5055110;28;20539;-48
2022/03/11 03:31:35;;;;;;;7.78;5.20;;;4.40;1.00;;;;;;5056228;28;20432;-54
2022/03/11 03:34:04;;;;;;;10.45;6.93;;;4.40;1.00;;;;;;5054655;28;20884;-48
2022/03/11 03:36:31;;;;;;;9.52;6.78;;;4.30;1.00;;;;;;5055597;28;20528;-49
2022/03/11 03:41:27;;;;;;;12.17;7.70;;;4.20;1.00;;;;;;5073100;28;20400;-54
2022/03/11 03:43:53;;;;;;;11.25;6.75;;;4.20;1.00;;;;;;5074532;28;20507;-49
2022/03/11 03:46:20;;;;;;;9.32;6.20;;;4.10;1.00;;;;;;5073454;28;20803;-49
2022/03/11 03:48:47;;;;;;;10.38;6.75;;;4.10;1.00;;;;;;5074427;28;20422;-51
2022/03/11 03:51:15;;;;;;;10.13;7.53;;;4.20;1.00;;;;;;5073696;28;20493;-52
2022/03/11 03:53:42;;;;;;;9.17;6.20;;;4.20;1.00;;;;;;5075932;28;20541;-49
2022/03/11 03:56:09;;;;;;;12.20;7.30;;;4.10;1.00;;;;;;5075066;28;20506;-52
2022/03/11 03:58:36;;;;;;;10.60;6.05;;;4.10;1.00;;;;;;5075647;28;20781;-50
2022/03/11 04:01:03;;;;;;;9.48;6.47;;;4.00;1.00;;;;;;5075318;28;20502;-51
2022/03/11 04:03:30;;;;;;;9.90;6.38;;;4.00;1.00;;;;;;5076046;28;20519;-50
2022/03/11 04:05:57;;;;;;;8.85;6.45;;;3.90;1.00;;;;;;5074527;28;20497;-50
2022/03/11 04:08:27;;;;;;;11.30;6.53;;;3.90;1.00;;;;;;5075362;28;20424;-49
2022/03/11 04:10:53;;;;;;;8.48;5.72;;;3.80;1.00;;;;;;5074938;28;20855;-49
2022/03/11 04:13:20;;;;;;;10.48;6.85;;;3.80;1.00;;;;;;5075587;28;20418;-54
2022/03/11 04:15:47;;;;;;;9.93;6.43;;;3.80;1.00;;;;;;5073440;28;20455;-48
2022/03/11 04:18:14;;;;;;;11.10;6.88;;;3.80;1.00;;;;;;5074950;28;20443;-49
2022/03/11 04:20:41;;;;;;;9.02;6.28;;;3.70;1.00;;;;;;5074220;28;20837;-47
2022/03/11 04:23:08;;;;;;;11.73;6.53;;;3.70;1.00;;;;;;5075036;28;20422;-51
2022/03/11 04:25:37;;;;;;;10.97;7.60;;;3.60;1.00;;;;;;5075513;28;20472;-54
2022/03/11 04:28:04;;;;;;;9.70;6.07;;;3.60;1.00;;;;;;5074305;28;20782;-52
2022/03/11 04:30:31;;;;;;;8.60;6.45;;;3.50;1.00;;;;;;5075153;28;20514;-49
2022/03/11 04:32:57;;;;;;;13.30;6.65;;;3.50;1.00;;;;;;5074472;28;20466;-51
2022/03/11 04:35:24;;;;;;;9.00;6.50;;;3.50;1.00;;;;;;5075096;28;20503;-51
2022/03/11 04:37:51;;;;;;;9.98;5.78;;;3.60;1.00;;;;;;5074466;28;20518;-54
2022/03/11 04:40:18;;;;;;;8.70;6.07;;;3.60;1.00;;;;;;5075137;28;20518;-52
2022/03/11 04:42:46;;;;;;;8.67;5.77;;;3.90;1.00;;;;;;5073953;28;20485;-50
2022/03/11 04:45:13;;;;;;;9.15;5.30;;;3.90;1.00;;;;;;5074950;28;20490;-49
2022/03/11 04:47:40;;;;;;;8.63;5.45;;;3.90;1.00;;;;;;5074249;28;20451;-53
2022/03/11 04:50:08;;;;;;;11.18;6.78;;;3.80;1.00;;;;;;5074817;28;20518;-52
2022/03/11 04:52:35;;;;;;;9.77;6.05;;;3.70;99.90;;;;;;5074560;28;20450;-53
2022/03/11 04:55:02;;;;;;;9.50;6.20;;;3.70;99.90;;;;;;5074159;28;20503;-52
2022/03/11 04:57:29;;;;;;;8.57;5.10;;;3.50;99.90;;;;;;5074226;28;20428;-50
2022/03/11 04:59:58;;;;;;;9.10;5.20;;;3.50;1.00;;;;;;5074985;28;20704;-50
2022/03/11 05:02:26;;;;;;;9.27;6.07;;;3.60;1.00;;;;;;5073896;28;20467;-56
2022/03/11 05:04:53;;;;;;;9.00;4.95;;;3.50;99.90;;;;;;5074373;28;20425;-49
2022/03/11 05:07:20;;;;;;;9.52;5.38;;;3.40;99.90;;;;;;5073689;28;20525;-50
2022/03/11 05:09:46;;;;;;;8.05;4.97;;;3.30;99.90;;;;;;5071849;28;20518;-47
2022/03/11 05:12:13;;;;;;;8.43;5.20;;;3.20;99.90;;;;;;5070323;28;20514;-49
2022/03/11 05:14:41;;;;;;;9.27;5.50;;;3.20;99.90;;;;;;5072491;28;20435;-54
2022/03/11 05:17:09;;;;;;;7.97;5.10;;;3.20;99.90;;;;;;5071736;28;20522;-52
2022/03/11 05:19:36;;;;;;;9.90;4.40;;;3.20;99.90;;;;;;5072773;28;20485;-52
2022/03/11 05:22:03;;;;;;;8.70;4.72;;;3.30;99.90;;;;;;5072400;28;20510;-49
2022/03/11 05:24:30;;;;;;;7.03;4.05;;;3.40;99.90;;;;;;5073137;28;20459;-50
2022/03/11 05:26:57;;;;;;;7.72;4.30;;;3.50;99.90;;;;;;5072579;28;20545;-50
2022/03/11 05:29:24;;;;;;;8.60;4.82;;;3.40;99.90;;;;;;5077558;28;20506;-49
2022/03/11 05:31:51;;;;;;;8.02;4.80;;;3.30;99.90;;;;;;5077387;28;20801;-49
2022/03/11 05:34:19;;;;;;;11.07;5.15;;;3.30;99.90;;;;;;5078057;28;20446;-52
2022/03/11 05:36:46;;;;;;;8.18;4.82;;;3.30;99.90;;;;;;5077660;28;20470;-53
2022/03/11 05:39:13;;;;;;;7.22;4.28;;;3.30;99.90;;;;;;5074101;28;20905;-50
2022/03/11 05:41:40;;;;;;;7.75;4.75;;;3.20;99.90;;;;;;5075610;28;20465;-52
2022/03/11 05:44:07;;;;;;;8.00;4.68;;;3.20;99.90;;;;;;5076468;28;20784;-53
2022/03/11 05:46:34;;;;;;;8.37;5.03;;;3.10;99.90;;;;;;5075080;28;20891;-54
2022/03/11 05:49:01;;;;;;;8.37;3.93;;;3.00;99.90;;;;;;5077406;28;20459;-51
2022/03/11 05:51:29;;;;;;;8.77;4.57;;;2.90;99.90;;;;;;5075993;28;20438;-48
2022/03/11 05:53:56;;;;;;;10.07;4.80;;;2.90;99.90;;;;;;5076512;28;20511;-49
2022/03/11 05:56:23;;;;;;;7.97;4.40;;;3.00;99.90;;;;;;5076784;28;20526;-51
2022/03/11 05:58:50;;;;;;;7.20;4.20;;;3.00;99.90;;;;;;5076214;28;20529;-50
2022/03/11 06:01:17;;;;;;;7.83;4.13;;;2.90;99.90;;;;;;5076310;28;20495;-49
2022/03/11 06:03:45;;;;;;;8.60;4.30;;;2.90;99.90;;;;;;5075555;28;20742;-50
2022/03/11 06:06:13;;;;;;;7.30;3.80;;;2.90;99.90;;;;;;5076788;28;20466;-49
2022/03/11 06:08:41;;;;;;;7.55;3.92;;;3.00;99.90;;;;;;5075969;28;20427;-53
2022/03/11 06:11:08;;;;;;;8.63;4.40;;;3.00;99.90;;;;;;5073843;28;20514;-51
2022/03/11 06:13:36;;;;;;;6.60;3.00;;;2.90;99.90;;;;;;5073472;28;20838;-49
2022/03/11 06:16:03;;;;;;;5.55;3.50;;;3.10;99.90;;;;;;5073439;28;20717;-50
2022/03/11 06:18:30;;;;;;;8.55;4.00;;;3.20;99.90;;;;;;5075260;28;20478;-54
2022/03/11 06:20:57;;;;;;;7.97;4.70;;;3.10;99.90;;;;;;5076300;28;20786;-52
2022/03/11 06:23:24;;;;;;;7.00;3.05;;;3.10;99.90;;;;;;5075461;28;20929;-51
2022/03/11 06:25:53;;;;;;;7.07;4.47;;;3.10;99.90;;;;;;5072019;28;20506;-48
2022/03/11 06:28:20;;;;;;;5.03;3.10;;;3.10;99.90;;;;;;5071393;28;20431;-50
2022/03/11 06:30:47;;;;;;;7.13;3.42;;;3.00;99.90;;;;;;5074834;28;20811;-54
2022/03/11 06:33:15;;;;;;;7.32;3.22;;;2.90;99.90;;;;;;5074271;28;20481;-51
2022/03/11 06:35:42;;;;;;;7.10;3.28;;;2.80;99.90;;;;;;5073358;28;20416;-51
2022/03/11 06:38:09;;;;;;;5.60;3.50;;;2.90;99.90;;;;;;5073463;28;20506;-53
2022/03/11 06:40:35;;;;;;;6.40;3.08;;;2.80;99.90;;;;;;5073573;28;20507;-52
2022/03/11 06:43:04;;;;;;;5.63;2.92;;;2.80;99.90;;;;;;5073236;28;20426;-51
2022/03/11 06:45:31;;;;;;;5.93;3.03;;;2.80;99.90;;;;;;5074353;28;20510;-54
2022/03/11 06:47:58;;;;;;;5.25;2.53;;;2.80;99.90;;;;;;5070143;28;20412;-55
2022/03/11 06:50:25;;;;;;;5.18;3.08;;;2.80;99.90;;;;;;5071430;28;20431;-54
2022/03/11 06:52:52;;;;;;;5.60;2.60;;;2.70;99.90;;;;;;5071991;28;20506;-53
2022/03/11 06:55:19;;;;;;;7.60;3.03;;;2.70;99.90;;;;;;5069299;28;20434;-54
2022/03/11 06:57:47;;;;;;;5.25;2.30;;;2.80;99.90;;;;;;5071461;28;20506;-51
2022/03/11 07:00:16;;;;;;;4.32;2.78;;;2.70;99.90;;;;;;5070847;28;20436;-53
2022/03/11 07:02:43;;;;;;;7.00;2.83;;;2.80;99.90;;;;;;5071775;28;20516;-54
2022/03/11 07:05:10;;;;;;;8.50;4.63;;;2.70;99.90;;;;;;5062196;28;20534;-50
2022/03/11 07:07:37;;;;;;;4.70;2.70;;;2.70;99.90;;;;;;5055115;28;20462;-49
2022/03/11 07:10:06;;;;;;;5.38;2.25;;;2.90;99.90;;;;;;5064728;28;20519;-50
2022/03/11 07:12:33;;;;;;;4.50;1.80;;;2.90;99.90;;;;;;5066083;28;20443;-51
2022/03/11 07:15:01;;;;;;;4.05;2.00;;;2.80;99.90;;;;;;5061040;28;20436;-50
2022/03/11 07:17:30;;;;;;;3.47;1.50;;;2.80;99.90;;;;;;5069737;28;20421;-50
2022/03/11 07:19:57;;;;;;;4.78;2.05;;;2.90;99.90;;;;;;5059254;28;20518;-51
2022/03/11 07:22:24;;;;;;;4.75;1.95;;;2.90;99.90;;;;;;5055651;28;20421;-50
2022/03/11 07:24:50;;;;;;;4.60;2.10;;;2.90;99.90;;;;;;5065653;28;20439;-49
2022/03/11 07:27:17;;;;;;;7.00;2.03;;;3.00;99.90;;;;;;5055427;28;20503;-53
2022/03/11 07:29:44;;;;;;;4.70;2.20;;;3.00;99.90;;;;;;5069369;28;20461;-52
2022/03/11 07:32:12;;;;;;;3.70;1.73;;;3.00;99.90;;;;;;5054216;28;20733;-48
2022/03/11 07:34:40;;;;;;;4.30;2.17;;;3.00;99.90;;;;;;5067626;28;20435;-51
2022/03/11 07:37:11;;;;;;;5.00;1.90;;;3.00;99.90;;;;;;5053533;28;20456;-51
2022/03/11 07:39:40;;;;;;;3.90;1.70;;;3.10;99.90;;;;;;5069580;28;20437;-52
2022/03/11 07:42:08;;;;;;;5.60;2.33;;;3.20;99.90;;;;;;5061128;28;20435;-49
2022/03/11 07:44:35;;;;;;;5.00;2.33;;;3.30;99.90;;;;;;5061172;28;20491;-51
2022/03/11 07:47:02;;;;;;;3.85;2.10;;;3.30;99.90;;;;;;5067581;28;20832;-51
2022/03/11 07:49:29;;;;;;;4.50;2.20;;;3.40;99.90;;;;;;5052805;28;20429;-49
2022/03/11 07:51:58;;;;;;;3.60;2.17;;;3.30;99.90;;;;;;5067262;28;20463;-50
2022/03/11 07:54:25;;;;;;;3.50;2.10;;;3.40;99.90;;;;;;5054229;28;20797;-49
2022/03/11 07:56:52;;;;;;;4.30;2.60;;;3.60;99.90;;;;;;5065168;28;20921;-50
2022/03/11 07:59:18;;;;;;;6.15;2.40;;;3.70;99.90;;;;;;5053231;28;20479;-52
2022/03/11 08:01:46;;;;;;;5.30;2.35;;;3.80;99.90;;;;;;5066577;28;20512;-52
2022/03/11 08:04:16;;;;;;;4.18;2.20;;;3.90;99.90;;;;;;5058015;28;20469;-47
2022/03/11 08:06:43;;;;;;;5.10;2.20;;;3.90;99.90;;;;;;5060389;28;20428;-54
2022/03/11 08:09:11;;;;;;;6.97;2.50;;;4.00;99.90;;;;;;5066703;28;20713;-62
2022/03/11 08:11:38;;;;;;;4.97;2.40;;;4.20;99.90;;;;;;5055875;28;20514;-59
2022/03/11 08:14:05;;;;;;;4.25;2.30;;;4.20;99.90;;;;;;5062645;28;20523;-59
2022/03/11 08:16:32;;;;;;;5.95;2.40;;;4.10;99.90;;;;;;5053812;28;20453;-58
2022/03/11 08:18:59;;;;;;;6.25;2.40;;;4.00;99.90;;;;;;5063828;28;20883;-58
2022/03/11 08:21:26;;;;;;;4.15;2.17;;;4.20;99.90;;;;;;5070708;28;20751;-56
2022/03/11 08:23:53;;;;;;;4.63;2.10;;;4.20;99.90;;;;;;5068349;28;21217;-57
2022/03/11 08:26:22;;;;;;;4.68;2.08;;;4.20;99.90;;;;;;5058474;28;20940;-56
2022/03/11 08:28:49;;;;;;;3.80;2.20;;;4.40;99.90;;;;;;5063736;28;20435;-58
2022/03/11 08:31:18;;;;;;;5.07;2.67;;;4.50;99.90;;;;;;5062492;28;20545;-57
2022/03/11 08:33:44;;;;;;;5.50;2.40;;;4.60;99.90;;;;;;5066924;28;20531;-57
2022/03/11 08:36:11;;;;;;;6.90;3.08;;;4.60;99.90;;;;;;5071856;28;20518;-55
2022/03/11 08:38:38;;;;;;;4.30;2.20;;;4.70;99.90;;;;;;5070491;28;20534;-56
2022/03/11 08:41:07;;;;;;;3.45;2.20;;;4.80;99.90;;;;;;5070051;28;20510;-57
2022/03/11 08:43:38;;;;;;;5.75;3.00;;;5.00;99.90;;;;;;5067353;28;20816;-58
2022/03/11 08:46:05;;;;;;;5.78;2.55;;;5.20;99.90;;;;;;5063712;28;20576;-57
2022/03/11 08:48:32;;;;;;;3.90;2.40;;;5.20;99.90;;;;;;5065063;28;20708;-56
2022/03/11 08:50:59;;;;;;;5.67;3.23;;;5.30;99.90;;;;;;5073227;28;20431;-55
2022/03/11 08:53:25;;;;;;;5.13;3.00;;;5.30;99.90;;;;;;5064017;28;20440;-58
2022/03/11 08:55:52;;;;;;;6.28;2.70;;;5.30;99.90;;;;;;5071432;28;20526;-56
2022/03/11 08:58:20;;;;;;;6.22;3.35;;;5.40;99.90;;;;;;5057485;28;20439;-54
2022/03/11 09:00:48;;;;;;;5.10;3.10;;;5.60;99.90;;;;;;5063006;28;20444;-56
2022/03/11 09:03:15;;;;;;;4.65;2.20;;;5.60;99.90;;;;;;5071002;28;20424;-56
2022/03/11 09:05:42;;;;;;;6.13;3.20;;;5.70;99.90;;;;;;5076790;28;20510;-57
2022/03/11 09:08:09;;;;;;;5.10;2.65;;;5.70;99.90;;;;;;5066476;28;20514;-56
2022/03/11 09:10:37;;;;;;;4.72;2.58;;;5.80;99.90;;;;;;5074672;28;20535;-55
2022/03/11 09:13:04;;;;;;;7.40;3.13;;;5.80;99.90;;;;;;5064281;28;20457;-54
2022/03/11 09:15:31;;;;;;;4.70;2.30;;;5.70;99.90;;;;;;5070386;28;20912;-56
2022/03/11 09:17:59;;;;;;;5.22;2.42;;;5.80;99.90;;;;;;5060248;28;20590;-57
2022/03/11 09:20:27;;;;;;;5.78;2.80;;;6.10;99.90;;;;;;5069770;28;20502;-57
2022/03/11 09:22:54;;;;;;;5.32;2.33;;;6.20;99.90;;;;;;5063162;28;20437;-55
2022/03/11 09:25:21;;;;;;;4.70;2.45;;;6.20;99.90;;;;;;5074429;28;20473;-56
2022/03/11 09:27:48;;;;;;;5.63;2.28;;;6.30;99.90;;;;;;5069286;28;20716;-55
2022/03/11 09:30:16;;;;;;;5.65;2.28;;;6.40;99.90;;;;;;5075712;28;20866;-57
2022/03/11 09:32:43;;;;;;;5.30;3.03;;;6.50;99.90;;;;;;5066002;28;20503;-56
2022/03/11 09:35:12;;;;;;;5.22;2.20;;;6.60;99.90;;;;;;5069792;28;20462;-55
2022/03/11 09:37:39;;;;;;;5.57;2.45;;;6.70;99.90;;;;;;5064032;28;20901;-55
2022/03/11 09:40:08;;;;;;;6.47;3.50;;;6.90;99.90;;;;;;5067330;28;20467;-55
2022/03/11 09:42:35;;;;;;;5.22;3.13;;;7.00;99.90;;;;;;5070993;28;20852;-55
2022/03/11 09:45:02;;;;;;;3.67;2.60;;;7.10;99.90;;;;;;5062581;28;20820;-55
2022/03/11 09:47:29;;;;;;;4.60;2.55;;;7.20;99.90;;;;;;5070291;28;20779;-54
2022/03/11 09:49:56;;;;;;;4.88;2.58;;;7.20;99.90;;;;;;5070032;28;20470;-56
2022/03/11 09:52:25;;;;;;;4.88;2.50;;;7.30;99.90;;;;;;5071319;28;20502;-55
2022/03/11 09:54:52;;;;;;;4.72;2.90;;;7.40;99.90;;;;;;5068714;28;20470;-53
2022/03/11 09:57:22;;;;;;;4.75;2.60;;;7.50;99.90;;;;;;5065079;28;20427;-55
2022/03/11 09:59:50;;;;;;;3.55;2.10;;;7.70;99.90;;;;;;5061377;28;20851;-54
2022/03/11 10:02:17;;;;;;;3.53;1.90;;;7.70;99.90;;;;;;5071278;28;20815;-52
2022/03/11 10:04:49;;;;;;;4.20;2.30;;;8.10;99.90;;;;;;5069949;28;20531;-55
2022/03/11 10:07:25;;;;;;;5.05;2.25;;;8.50;99.90;;;;;;5070390;28;20416;-54
2022/03/11 10:09:52;;;;;;;5.78;2.67;;;8.80;99.90;;;;;;5071373;28;20461;-53
2022/03/11 10:12:24;;;;;;;3.95;2.10;;;9.00;99.90;;;;;;5073834;28;20479;-53
2022/03/11 10:14:59;;;;;;;5.82;2.80;;;9.10;99.90;;;;;;5066705;28;20504;-53
2022/03/11 10:17:27;;;;;;;4.38;1.90;;;9.10;99.90;;;;;;5072561;28;20514;-54
2022/03/11 10:20:06;;;;;;;3.75;2.10;;;9.10;99.90;;;;;;5070110;28;20445;-54
2022/03/11 10:22:35;;;;;;;3.53;1.75;;;9.30;99.90;;;;;;5069966;28;20431;-55
2022/03/11 10:25:08;;;;;;;4.47;2.10;;;9.40;99.90;;;;;;5067276;28;20446;-54
2022/03/11 10:27:54;;;;;;;4.97;1.80;;;9.40;99.90;;;;;;5070264;28;20428;-54
2022/03/11 10:30:22;;;;;;;5.40;4.43;;;9.80;99.90;;;;;;5065363;28;20427;-54
2022/03/11 10:32:50;;;;;;;5.60;2.30;;;10.00;99.90;;;;;;5071018;28;20505;-52
2022/03/11 10:35:18;;;;;;;4.05;2.50;;;10.30;99.90;;;;;;5070436;28;20435;-56
2022/03/11 10:37:59;;;;;;;3.83;2.10;;;10.30;99.90;;;;;;5068120;28;20438;-55
2022/03/11 10:40:27;;;;;;;4.13;2.05;;;10.50;99.90;;;;;;5066959;28;20498;-55
2022/03/11 10:43:14;;;;;;;6.32;3.20;;;10.90;99.90;;;;;;5068451;28;20459;-56
2022/03/11 10:45:45;;;;;;;4.82;2.20;;;11.20;99.90;;;;;;5068629;28;20419;-56
2022/03/11 10:48:13;;;;;;;4.00;2.40;;;11.60;99.90;;;;;;5065750;28;20729;-54
2022/03/11 10:50:40;;;;;;;4.20;2.67;;;11.40;99.90;;;;;;5068777;28;20420;-55
2022/03/11 10:53:09;;;;;;;6.25;2.25;;;11.60;99.90;;;;;;5067563;28;20876;-53
2022/03/11 10:55:39;;;;;;;6.13;2.20;;;11.90;99.90;;;;;;5066461;28;20424;-53
2022/03/11 10:58:07;;;;;;;3.93;2.40;;;12.00;99.90;;;;;;5069879;28;20433;-53
2022/03/11 11:00:35;;;;;;;3.53;2.00;;;12.10;99.90;;;;;;5067123;28;20498;-54
2022/03/11 11:03:04;;;;;;;5.13;2.30;;;12.40;99.90;;;;;;5072151;28;20439;-58
2022/03/11 11:05:32;;;;;;;5.88;2.40;;;12.30;99.90;;;;;;5066368;28;20534;-57
2022/03/11 11:08:01;;;;;;;3.53;2.40;;;12.50;99.90;;;;;;5071311;28;20502;-58
2022/03/11 11:10:31;;;;;;;4.97;2.30;;;12.40;99.90;;;;;;5069752;28;20820;-59
2022/03/11 11:12:58;;;;;;;4.75;2.55;;;12.70;99.90;;;;;;5071629;28;20455;-57
2022/03/11 11:15:26;;;;;;;3.42;2.30;;;12.90;99.90;;;;;;5062925;28;20508;-60
2022/03/11 11:17:53;;;;;;;7.65;5.00;;;12.30;99.90;;;;;;5068117;28;20931;-60
2022/03/11 11:20:22;;;;;;;4.68;2.95;;;12.70;99.90;;;;;;5056262;28;21004;-58
2022/03/11 11:22:52;;;;;;;6.17;3.33;;;13.10;99.90;;;;;;5068897;28;20868;-59
2022/03/11 11:25:21;;;;;;;9.10;6.43;;;13.10;99.90;;;;;;5069676;28;20822;-61
2022/03/11 11:27:52;;;;;;;5.53;2.50;;;13.40;99.90;;;;;;5070032;28;20464;-59
2022/03/11 11:30:22;;;;;;;4.45;2.50;;;13.30;99.90;;;;;;5067366;28;20518;-59
2022/03/11 11:32:52;;;;;;;5.75;2.40;;;13.40;99.90;;;;;;5071119;28;20427;-60
2022/03/11 11:35:27;;;;;;;4.65;2.38;;;13.80;99.90;;;;;;5063094;28;20505;-61
2022/03/11 11:37:54;;;;;;;10.75;6.63;;;14.10;99.90;;;;;;5060717;28;20423;-59
2022/03/11 11:40:23;;;;;;;4.25;2.05;;;14.10;99.90;;;;;;5064188;28;20435;-58
2022/03/11 11:43:30;;;;;;;5.63;2.50;;;14.40;99.90;;;;;;5068606;28;20678;-60
2022/03/11 11:46:10;;;;;;;4.93;2.90;;;14.50;99.90;;;;;;5062752;28;20431;-59
2022/03/11 11:49:04;;;;;;;3.97;2.37;;;14.20;99.90;;;;;;5068525;28;20859;-60
2022/03/11 11:52:12;;;;;;;3.60;2.70;;;14.20;99.90;;;;;;5069438;28;20458;-60
2022/03/11 11:54:42;;;;;;;4.90;2.60;;;14.30;99.90;;;;;;5069573;28;20437;-60
2022/03/11 11:57:17;;;;;;;4.30;2.70;;;14.50;99.90;;;;;;5065493;28;21135;-58
2022/03/11 11:59:46;;;;;;;2.90;2.20;;;14.30;99.90;;;;;;5066661;28;20520;-59
2022/03/11 12:02:33;;;;;;;5.22;2.63;;;14.60;99.90;;;;;;5064902;28;20435;-59
2022/03/11 12:05:01;;;;;;;3.00;2.42;;;14.70;99.90;;;;;;5062510;28;20530;-60
2022/03/11 12:07:47;;;;;;;5.55;2.85;;;15.00;99.90;;;;;;5067331;28;20505;-59
2022/03/11 12:10:25;;;;;;;4.93;3.60;;;14.70;99.90;;;;;;5065507;28;20919;-58
2022/03/11 12:13:02;;;;;;;3.38;3.00;;;14.60;99.90;;;;;;5069567;28;20416;-58
2022/03/11 12:15:39;;;;;;;4.20;2.30;;;14.70;99.90;;;;;;5069895;28;20789;-59
2022/03/11 12:18:26;;;;;;;4.63;2.70;;;15.00;99.90;;;;;;5060524;28;20432;-59
2022/03/11 12:20:53;;;;;;;3.33;2.30;;;15.20;99.90;;;;;;5064936;28;20928;-59
2022/03/11 12:23:21;;;;;;;4.43;2.58;;;15.40;99.90;;;;;;5065700;28;20524;-59
2022/03/11 12:25:54;;;;;;;5.60;2.90;;;15.20;99.90;;;;;;5067046;28;20843;-60
2022/03/11 12:28:31;;;;;;;4.93;3.15;;;14.80;99.90;;;;;;5066108;28;20505;-59
2022/03/11 12:31:00;;;;;;;5.07;2.65;;;14.40;99.90;;;;;;5064610;28;20439;-59
2022/03/11 12:33:33;;;;;;;4.53;2.47;;;14.40;99.90;;;;;;5060838;28;20751;-58
2022/03/11 12:36:01;;;;;;;5.80;2.83;;;14.70;99.90;;;;;;5067287;28;20912;-57
2022/03/11 12:38:31;;;;;;;3.30;2.28;;;14.70;99.90;;;;;;5061777;28;20525;-58
2022/03/11 12:41:03;;;;;;;3.92;2.60;;;14.80;99.90;;;;;;5064331;28;20431;-58
2022/03/11 12:43:30;;;;;;;3.67;2.60;;;14.90;99.90;;;;;;5067177;28;21068;-57
2022/03/11 12:45:59;;;;;;;6.07;3.10;;;15.20;99.90;;;;;;5063422;28;20481;-58
2022/03/11 12:48:29;;;;;;;8.05;4.95;;;15.30;99.90;;;;;;5061648;28;20431;-58
2022/03/11 12:50:56;;;;;;;10.98;7.55;;;15.40;99.90;;;;;;5061223;28;20426;-58
2022/03/11 12:53:24;;;;;;;4.28;2.65;;;15.60;99.90;;;;;;5064018;28;20518;-58
2022/03/11 12:55:53;;;;;;;5.70;3.00;;;15.60;99.90;;;;;;5065237;28;20421;-57
2022/03/11 12:58:27;;;;;;;3.80;2.58;;;15.60;99.90;;;;;;5070406;28;20441;-58
2022/03/11 13:00:57;;;;;;;4.20;3.30;;;15.10;99.90;;;;;;5060227;28;20439;-57
2022/03/11 13:03:30;;;;;;;4.22;2.80;;;15.00;99.90;;;;;;5068003;28;20431;-57